Airfield :
LOGIN :

Register | Disclaimer

   EN    FR    IT 

 










Legend :    VFR   Marginal VFR   IFR   Intensive IFR   Very Intensive IFR
Visi :
Ceiling :
>= 8 km
>= 3000ft
5 to 8 km
1000 to 3000 ft
1500m to 5 km
500 to 1000 ft
800 to 1500m
200 to 500 ft
< 800m
< 200 ft
Symbols :   Thunderstorms  Fog  Heavy snow  Heavy precipitations  Wind > 20 kt
SIGMETs :     Misc.  Thunderstorms  Icing  Turbulence  Mountain Waves  Volcanic Ashes






- Airport Elevation : 38 ft
- IATA code : BOH


EGHH - Bournemouth

CURRENT METAR :
  • 241420Z 22013KT 9999 VCSH FEW014 SCT028 13/06 Q0994

EXPIRED METARs :
  • 241350Z 22011KT 9999 FEW014 SCT028 13/07 Q0994
  • 241320Z 22010KT 9999 FEW014 SCT028 13/09 Q0994
  • 241250Z 23008KT 9999 -RA FEW014 SCT032 BKN048 12/09 Q0995
  • 241220Z 23006KT 9999 -RA FEW013 SCT029 BKN045 11/09 Q0996
  • 241150Z 25005KT 210V280 9999 FEW012 SCT028 BKN035 12/09 Q0996
  • 241120Z 25005KT 9999 -RA FEW012 SCT028 BKN037 10/09 Q0996 RESHRA

TAF TAF EGHH
Valid from the 24 at 12:00 until the 24 at 21:00 UTC


241055Z 2412/2421 24009KT 9999 SCT025
TEMPO 2412/2421 22015G25KT 6000 SHRA
PROB30
TEMPO 2412/2421 3000 +TSRA +SHGS BKN020CB
ATIS : +44 1202 364 151
Met : +44 1202 364 158 (TAF)



MET'MAP, your aeronautical weather chart ! - Copyright ORBIFLY December 2007 - Disclaimer

ORBIFLY MET'MAP TEAM :

Programming & Development : Alexandra Zaïnal
Concept & original design : Baudouin d'Aumeries
Assistance for programming : Marc-Olivier Méhu
Technical & hardware support : Manuel Goepfert

Contact : metmap@orbifly.com




SOURCES & CREDITS :

   NOAA